createdAt,value
2024-05-09T00:00:56.109Z,78.65
2024-05-09T00:01:58.480Z,78.59
2024-05-09T00:03:02.062Z,78.38
2024-05-09T00:04:04.999Z,78.55
2024-05-09T00:05:11.656Z,78.32
2024-05-09T00:06:14.359Z,78.21
2024-05-09T00:07:17.014Z,78.50
2024-05-09T00:08:19.449Z,78.31
2024-05-09T00:09:22.047Z,78.25
2024-05-09T00:10:35.397Z,78.31
2024-05-09T00:11:40.938Z,78.38
2024-05-09T00:12:43.562Z,78.16
2024-05-09T00:13:46.108Z,78.43
2024-05-09T00:14:48.557Z,78.18
2024-05-09T00:15:50.950Z,78.36
2024-05-09T00:16:53.466Z,77.99
2024-05-09T00:17:56.309Z,77.97
2024-05-09T00:18:58.924Z,78.60
2024-05-09T00:20:02.083Z,79.12
2024-05-09T00:21:08.827Z,79.34
2024-05-09T00:22:12.150Z,79.65
2024-05-09T00:23:14.734Z,79.66
2024-05-09T00:24:17.395Z,79.53
2024-05-09T00:25:19.790Z,79.70
2024-05-09T00:26:22.904Z,79.81
2024-05-09T00:27:25.631Z,79.82
2024-05-09T00:28:28.445Z,79.68
2024-05-09T00:29:31.004Z,79.84
2024-05-09T00:30:36.145Z,80.61
2024-05-09T00:31:39.778Z,80.08
2024-05-09T00:32:42.722Z,79.96
2024-05-09T00:33:45.347Z,80.06
2024-05-09T00:34:48.144Z,80.29
2024-05-09T00:35:51.041Z,80.51
2024-05-09T00:36:57.055Z,80.94
2024-05-09T00:37:59.877Z,80.93
2024-05-09T00:39:03.286Z,81.20
2024-05-09T00:40:09.567Z,80.93
2024-05-09T00:41:16.424Z,81.18
2024-05-09T00:42:21.002Z,81.21
2024-05-09T00:43:23.306Z,81.00
2024-05-09T00:44:25.902Z,80.97
2024-05-09T00:45:28.284Z,80.84
2024-05-09T00:46:31.065Z,80.62
2024-05-09T00:47:35.966Z,80.42
2024-05-09T00:48:38.568Z,80.57
2024-05-09T00:49:42.683Z,80.17
2024-05-09T00:50:46.537Z,79.86
2024-05-09T00:51:49.628Z,79.83
2024-05-09T00:52:53.970Z,79.63
2024-05-09T00:53:58.393Z,79.31
2024-05-09T00:55:02.238Z,80.07
2024-05-09T00:56:08.238Z,79.96
2024-05-09T00:57:13.131Z,80.02
2024-05-09T00:58:19.360Z,80.51
2024-05-09T00:59:22.464Z,80.54
2024-05-09T01:00:35.675Z,81.01
2024-05-09T01:01:43.871Z,80.49
2024-05-09T01:02:46.942Z,80.83
2024-05-09T01:03:51.663Z,80.62
2024-05-09T01:04:54.584Z,80.95
2024-05-09T01:05:58.107Z,80.74
2024-05-09T01:07:01.104Z,80.76
2024-05-09T01:08:03.584Z,80.31
2024-05-09T01:09:06.099Z,80.15
2024-05-09T01:10:14.316Z,79.93
2024-05-09T01:11:23.553Z,79.70
2024-05-09T01:12:26.417Z,80.00
2024-05-09T01:13:32.639Z,80.48
2024-05-09T01:14:39.676Z,79.94
2024-05-09T01:15:42.518Z,80.59
2024-05-09T01:16:45.145Z,80.52
2024-05-09T01:17:48.633Z,80.62
2024-05-09T01:18:52.932Z,80.82
2024-05-09T01:19:55.985Z,80.77
2024-05-09T01:21:01.787Z,80.55
2024-05-09T01:22:04.615Z,80.54
2024-05-09T01:23:08.440Z,80.45
2024-05-09T01:24:13.711Z,80.56
2024-05-09T01:25:16.893Z,80.81
2024-05-09T01:26:19.647Z,80.83
2024-05-09T01:27:23.125Z,80.66
2024-05-09T01:28:26.176Z,81.09
2024-05-09T01:29:28.839Z,81.37
2024-05-09T01:30:35.246Z,81.11
2024-05-09T01:31:39.782Z,81.95
2024-05-09T01:32:43.539Z,81.83
2024-05-09T01:33:47.751Z,82.04
2024-05-09T01:34:51.146Z,82.40
2024-05-09T01:35:53.659Z,82.38
2024-05-09T01:36:56.151Z,81.86
2024-05-09T01:37:58.798Z,81.90
2024-05-09T01:39:02.275Z,82.09
2024-05-09T01:40:09.566Z,82.06
2024-05-09T01:41:17.141Z,81.60
2024-05-09T01:42:19.590Z,81.98
2024-05-09T01:43:22.573Z,81.60
2024-05-09T01:44:25.055Z,82.37
2024-05-09T01:45:28.263Z,82.68
2024-05-09T01:46:31.408Z,82.56
2024-05-09T01:47:33.956Z,82.93
2024-05-09T01:48:36.886Z,82.94
2024-05-09T01:49:40.896Z,83.31
2024-05-09T01:50:43.729Z,83.20
2024-05-09T01:51:46.346Z,83.27
2024-05-09T01:52:51.495Z,83.03
2024-05-09T01:53:56.561Z,82.56
2024-05-09T01:55:00.775Z,82.46
2024-05-09T01:56:06.430Z,82.74
2024-05-09T01:57:09.038Z,82.40
2024-05-09T01:58:12.385Z,81.64
2024-05-09T01:59:14.831Z,81.33
2024-05-09T02:00:26.258Z,80.84
2024-05-09T02:01:56.400Z,81.39
2024-05-09T02:03:00.760Z,81.30
2024-05-09T02:04:03.416Z,81.25
2024-05-09T02:05:07.581Z,82.46
2024-05-09T02:06:10.449Z,82.29
2024-05-09T02:07:13.399Z,82.02
2024-05-09T02:08:18.381Z,82.26
2024-05-09T02:09:21.894Z,82.05
2024-05-09T02:10:31.722Z,82.25
2024-05-09T02:11:46.063Z,82.05
2024-05-09T02:12:48.508Z,81.76
2024-05-09T02:13:51.133Z,81.74
2024-05-09T02:14:53.567Z,82.43
2024-05-09T02:15:58.627Z,83.82
2024-05-09T02:17:01.081Z,84.27
2024-05-09T02:18:04.948Z,83.70
2024-05-09T02:19:07.823Z,83.30
2024-05-09T02:20:18.762Z,82.87
2024-05-09T02:21:35.730Z,82.39
2024-05-09T02:22:38.121Z,82.59
2024-05-09T02:23:43.601Z,82.80
2024-05-09T02:24:46.139Z,82.70
2024-05-09T02:25:49.608Z,82.12
2024-05-09T02:26:52.321Z,82.46
2024-05-09T02:27:54.727Z,82.45
2024-05-09T02:28:57.430Z,82.19
2024-05-09T02:29:59.955Z,82.73
2024-05-09T02:31:02.580Z,83.02
2024-05-09T02:32:05.807Z,82.75
2024-05-09T02:33:13.810Z,82.20
2024-05-09T02:34:17.292Z,82.12
2024-05-09T02:35:19.723Z,81.70
2024-05-09T02:36:22.704Z,81.63
2024-05-09T02:37:25.193Z,81.34
2024-05-09T02:38:28.071Z,81.31
2024-05-09T02:39:30.748Z,81.46
2024-05-09T02:40:37.240Z,81.31
2024-05-09T02:41:42.116Z,81.19
2024-05-09T02:42:44.528Z,81.02
2024-05-09T02:43:47.110Z,80.83
2024-05-09T02:44:49.629Z,80.71
2024-05-09T02:45:52.889Z,80.69
2024-05-09T02:46:55.594Z,80.61
2024-05-09T02:47:58.527Z,80.71
2024-05-09T02:49:01.255Z,80.88
2024-05-09T02:50:08.292Z,80.64
2024-05-09T02:51:11.721Z,80.48
2024-05-09T02:52:20.458Z,80.12
2024-05-09T02:53:24.519Z,79.72
2024-05-09T02:54:27.102Z,79.49
2024-05-09T02:55:29.531Z,79.92
2024-05-09T02:56:32.472Z,79.67
2024-05-09T02:57:38.304Z,79.71
2024-05-09T02:58:41.005Z,79.90
2024-05-09T02:59:44.196Z,79.62
2024-05-09T03:00:47.078Z,79.58
2024-05-09T03:01:49.564Z,79.21
2024-05-09T03:02:52.799Z,78.93
2024-05-09T03:03:55.516Z,79.46
2024-05-09T03:04:58.369Z,79.50
2024-05-09T03:06:03.130Z,78.89
2024-05-09T03:07:05.859Z,78.81
2024-05-09T03:08:08.313Z,78.32
2024-05-09T03:09:11.246Z,78.50
2024-05-09T03:10:21.928Z,78.64
2024-05-09T03:11:28.410Z,78.86
2024-05-09T03:12:31.021Z,78.96
2024-05-09T03:13:33.332Z,79.23
2024-05-09T03:14:35.907Z,79.57
2024-05-09T03:15:38.484Z,79.26
2024-05-09T03:16:40.958Z,79.58
2024-05-09T03:17:43.636Z,80.68
2024-05-09T03:18:47.157Z,80.71
2024-05-09T03:19:49.763Z,80.66
2024-05-09T03:20:52.825Z,80.72
2024-05-09T03:21:55.452Z,80.89
2024-05-09T03:22:57.965Z,80.98
2024-05-09T03:24:01.202Z,80.84
2024-05-09T03:25:03.583Z,80.74
2024-05-09T03:26:17.560Z,80.68
2024-05-09T03:27:24.846Z,80.60
2024-05-09T03:28:27.512Z,80.69
2024-05-09T03:29:29.998Z,80.81
2024-05-09T03:30:40.173Z,80.98
2024-05-09T03:31:45.044Z,80.98
2024-05-09T03:32:48.246Z,80.79
2024-05-09T03:33:51.180Z,81.01
2024-05-09T03:34:53.646Z,80.75
2024-05-09T03:35:57.084Z,80.67
2024-05-09T03:36:59.613Z,81.02
2024-05-09T03:38:02.255Z,80.69
2024-05-09T03:39:04.722Z,80.78
2024-05-09T03:40:11.813Z,81.01
2024-05-09T03:41:20.558Z,81.71
2024-05-09T03:42:28.211Z,81.25
2024-05-09T03:43:30.883Z,80.96
2024-05-09T03:44:33.377Z,81.17
2024-05-09T03:45:36.030Z,81.16
2024-05-09T03:46:42.440Z,81.90
2024-05-09T03:47:44.952Z,82.06
2024-05-09T03:48:48.073Z,81.91
2024-05-09T03:49:50.988Z,82.47
2024-05-09T03:50:53.698Z,82.68
2024-05-09T03:51:58.121Z,82.45
2024-05-09T03:53:02.081Z,82.99
2024-05-09T03:54:04.659Z,82.99
2024-05-09T03:55:07.746Z,82.94
2024-05-09T03:56:10.169Z,82.90
2024-05-09T03:57:13.282Z,83.10
2024-05-09T03:58:15.975Z,82.86
2024-05-09T03:59:18.774Z,83.16
2024-05-09T04:00:30.004Z,82.96
2024-05-09T04:01:38.025Z,83.10
2024-05-09T04:02:43.755Z,83.19
2024-05-09T04:03:46.933Z,83.45
2024-05-09T04:04:49.694Z,83.60
2024-05-09T04:05:52.747Z,83.67
2024-05-09T04:06:55.957Z,83.32
2024-05-09T04:07:58.412Z,83.39
2024-05-09T04:09:01.306Z,83.37
2024-05-09T04:10:06.799Z,82.37
2024-05-09T04:11:12.189Z,82.71
2024-05-09T04:12:14.724Z,82.63
2024-05-09T04:13:20.770Z,82.14
2024-05-09T04:14:23.647Z,82.24
2024-05-09T04:15:27.512Z,82.01
2024-05-09T04:16:29.910Z,81.78
2024-05-09T04:17:32.892Z,82.05
2024-05-09T04:18:36.081Z,82.09
2024-05-09T04:19:38.573Z,82.12
2024-05-09T04:20:41.633Z,82.33
2024-05-09T04:21:44.695Z,82.83
2024-05-09T04:22:48.071Z,82.54
2024-05-09T04:23:50.675Z,82.64
2024-05-09T04:24:53.233Z,82.90
2024-05-09T04:25:57.996Z,83.11
2024-05-09T04:27:01.382Z,83.04
2024-05-09T04:28:04.104Z,83.28
2024-05-09T04:29:07.077Z,83.46
2024-05-09T04:30:18.559Z,83.13
2024-05-09T04:31:24.408Z,83.04
2024-05-09T04:32:27.452Z,83.06
2024-05-09T04:33:30.915Z,82.85
2024-05-09T04:34:36.020Z,83.31
2024-05-09T04:35:38.917Z,83.34
2024-05-09T04:36:44.343Z,83.34
2024-05-09T04:37:47.542Z,83.23
2024-05-09T04:38:51.477Z,83.30
2024-05-09T04:39:54.693Z,83.74
2024-05-09T04:40:57.439Z,83.36
2024-05-09T04:41:59.975Z,83.75
2024-05-09T04:43:04.449Z,83.29
2024-05-09T04:44:09.549Z,83.75
2024-05-09T04:45:12.389Z,83.57
2024-05-09T04:46:15.835Z,83.96
2024-05-09T04:47:18.751Z,84.40
2024-05-09T04:48:23.836Z,84.65
2024-05-09T04:49:28.300Z,84.88
2024-05-09T04:50:36.857Z,85.35
2024-05-09T04:51:42.732Z,85.74
2024-05-09T04:52:45.101Z,86.15
2024-05-09T04:53:48.447Z,85.83
2024-05-09T04:54:54.049Z,85.61
2024-05-09T04:56:00.995Z,85.70
2024-05-09T04:57:03.376Z,86.26
2024-05-09T04:58:09.463Z,86.33
2024-05-09T04:59:12.294Z,86.44
2024-05-09T05:00:21.915Z,86.41
2024-05-09T05:01:32.059Z,86.57
2024-05-09T05:02:34.546Z,86.47
2024-05-09T05:03:37.616Z,86.66
2024-05-09T05:04:40.212Z,86.41
2024-05-09T05:05:44.794Z,86.34
2024-05-09T05:06:48.160Z,86.85
2024-05-09T05:07:50.847Z,86.93
2024-05-09T05:08:53.250Z,87.50
2024-05-09T05:09:56.024Z,87.66
2024-05-09T05:10:58.458Z,88.10
2024-05-09T05:12:02.871Z,88.22
2024-05-09T05:13:23.279Z,88.52
2024-05-09T05:14:27.102Z,88.99
2024-05-09T05:15:29.811Z,88.89
2024-05-09T05:16:32.456Z,88.90
2024-05-09T05:17:35.130Z,89.21
2024-05-09T05:18:40.026Z,88.72
2024-05-09T05:19:43.363Z,88.70
2024-05-09T05:20:46.142Z,89.13
2024-05-09T05:21:48.569Z,89.20
2024-05-09T05:22:51.371Z,89.17
2024-05-09T05:23:53.699Z,88.99
2024-05-09T05:24:56.104Z,88.79
2024-05-09T05:25:59.131Z,87.56
2024-05-09T05:27:02.221Z,88.20
2024-05-09T05:28:04.878Z,88.41
2024-05-09T05:29:07.960Z,88.64
2024-05-09T05:30:17.574Z,88.69
2024-05-09T05:31:23.814Z,88.61
2024-05-09T05:32:29.661Z,88.66
2024-05-09T05:33:36.699Z,88.55
2024-05-09T05:34:39.408Z,88.04
2024-05-09T05:35:42.856Z,87.76
2024-05-09T05:36:46.131Z,87.26
2024-05-09T05:37:48.596Z,87.07
2024-05-09T05:38:52.246Z,87.17
2024-05-09T05:39:54.853Z,86.80
2024-05-09T05:40:57.799Z,86.90
2024-05-09T05:42:00.913Z,86.42
2024-05-09T05:43:11.020Z,86.52
2024-05-09T05:44:16.027Z,86.37
2024-05-09T05:45:18.503Z,86.36
2024-05-09T05:46:21.350Z,85.71
2024-05-09T05:47:26.166Z,85.25
2024-05-09T05:48:29.783Z,85.43
2024-05-09T05:49:33.634Z,85.10
2024-05-09T05:50:38.419Z,84.58
2024-05-09T05:51:42.305Z,84.06
2024-05-09T05:52:44.876Z,83.62
2024-05-09T05:53:47.749Z,83.87
2024-05-09T05:54:52.065Z,83.65
2024-05-09T05:55:54.827Z,83.59
2024-05-09T05:57:00.234Z,83.32
2024-05-09T05:58:04.010Z,83.10
2024-05-09T05:59:07.234Z,82.99
2024-05-09T06:00:17.969Z,82.40
2024-05-09T06:01:23.966Z,82.22
2024-05-09T06:02:26.928Z,81.86
2024-05-09T06:03:29.867Z,81.98
2024-05-09T06:04:32.733Z,81.77
2024-05-09T06:05:37.419Z,81.70
2024-05-09T06:06:39.997Z,81.97
2024-05-09T06:07:42.822Z,81.71
2024-05-09T06:08:46.069Z,81.78
2024-05-09T06:09:50.383Z,81.25
2024-05-09T06:10:53.318Z,80.83
2024-05-09T06:11:55.976Z,80.71
2024-05-09T06:12:58.381Z,80.50
2024-05-09T06:14:02.113Z,79.74
2024-05-09T06:15:05.088Z,79.20
2024-05-09T06:16:07.949Z,78.74
2024-05-09T06:17:11.066Z,78.58
2024-05-09T06:18:14.668Z,78.20
2024-05-09T06:19:19.235Z,78.05
2024-05-09T06:20:31.530Z,77.46
2024-05-09T06:21:38.258Z,77.59
2024-05-09T06:22:40.740Z,77.08
2024-05-09T06:23:47.506Z,77.31
2024-05-09T06:24:49.830Z,76.96
2024-05-09T06:25:52.517Z,76.64
2024-05-09T06:26:58.198Z,76.68
2024-05-09T06:28:02.074Z,76.53
2024-05-09T06:29:05.021Z,75.97
2024-05-09T06:30:14.397Z,75.87
2024-05-09T06:31:25.234Z,74.63
2024-05-09T06:32:28.269Z,74.22
2024-05-09T06:33:31.475Z,74.13
2024-05-09T06:34:34.435Z,74.22
2024-05-09T06:35:38.448Z,73.97
2024-05-09T06:36:42.620Z,73.88
2024-05-09T06:37:45.277Z,73.45
2024-05-09T06:38:51.113Z,73.10
2024-05-09T06:39:53.469Z,72.77
2024-05-09T06:40:56.176Z,73.08
2024-05-09T06:41:58.563Z,72.87
2024-05-09T06:43:01.341Z,72.75
2024-05-09T06:44:03.984Z,72.32
2024-05-09T06:45:07.179Z,72.44
2024-05-09T06:46:09.620Z,71.97
2024-05-09T06:47:12.584Z,71.68
2024-05-09T06:48:15.868Z,71.25
2024-05-09T06:49:18.681Z,71.14
2024-05-09T06:50:28.010Z,70.70
2024-05-09T06:51:37.661Z,70.25
2024-05-09T06:52:43.123Z,70.27
2024-05-09T06:53:46.234Z,69.65
2024-05-09T06:54:48.915Z,69.25
2024-05-09T06:55:51.964Z,69.50
2024-05-09T06:56:54.606Z,69.37
2024-05-09T06:57:57.235Z,69.18
2024-05-09T06:58:59.642Z,69.21
2024-05-09T07:00:03.796Z,69.08
2024-05-09T07:01:07.695Z,68.81
2024-05-09T07:02:10.215Z,68.74
2024-05-09T07:03:17.125Z,68.65
2024-05-09T07:04:21.213Z,68.79
2024-05-09T07:05:24.154Z,68.71
2024-05-09T07:06:27.540Z,68.75
2024-05-09T07:07:34.830Z,68.49
2024-05-09T07:08:37.865Z,68.52
2024-05-09T07:09:40.921Z,68.13
2024-05-09T07:10:43.603Z,68.48
2024-05-09T07:11:47.681Z,68.27
2024-05-09T07:12:51.601Z,67.88
2024-05-09T07:13:54.587Z,67.47
2024-05-09T07:14:57.373Z,67.68
2024-05-09T07:15:59.726Z,67.88
2024-05-09T07:17:02.936Z,67.68
2024-05-09T07:18:23.819Z,67.01
2024-05-09T07:19:29.867Z,67.78
2024-05-09T07:20:34.985Z,67.47
2024-05-09T07:21:38.453Z,67.37
2024-05-09T07:22:40.962Z,67.13
2024-05-09T07:23:46.916Z,67.03
2024-05-09T07:24:55.023Z,67.00
2024-05-09T07:26:00.368Z,66.73
2024-05-09T07:27:04.546Z,66.92
2024-05-09T07:28:14.883Z,65.78
2024-05-09T07:29:17.699Z,66.13
2024-05-09T07:30:27.918Z,65.90
2024-05-09T07:31:35.796Z,66.63
2024-05-09T07:32:38.428Z,66.10
2024-05-09T07:33:41.405Z,65.75
2024-05-09T07:34:43.930Z,65.46
2024-05-09T07:35:46.990Z,65.32
2024-05-09T07:36:49.742Z,65.38
2024-05-09T07:37:52.178Z,64.93
2024-05-09T07:38:55.899Z,64.81
2024-05-09T07:39:58.319Z,64.09
2024-05-09T07:41:04.084Z,64.26
2024-05-09T07:42:07.873Z,63.56
2024-05-09T07:43:12.046Z,63.77
2024-05-09T07:44:14.544Z,63.70
2024-05-09T07:47:14.691Z,63.09
2024-05-09T07:49:13.465Z,63.81
2024-05-09T07:53:33.151Z,62.74
2024-05-09T07:53:59.895Z,63.03
2024-05-09T07:55:03.954Z,63.02
2024-05-09T07:56:07.492Z,63.23
2024-05-09T07:57:11.283Z,63.09
2024-05-09T07:58:13.625Z,63.16
2024-05-09T07:59:16.129Z,62.71
2024-05-09T08:00:26.752Z,62.26
2024-05-09T08:01:32.521Z,62.03
2024-05-09T08:02:35.282Z,62.49
2024-05-09T08:03:38.695Z,62.51
2024-05-09T08:04:41.513Z,61.81
2024-05-09T08:05:44.227Z,62.18
2024-05-09T08:06:47.408Z,62.20
2024-05-09T08:07:50.811Z,62.10
2024-05-09T08:08:56.850Z,61.85
2024-05-09T08:10:00.820Z,61.97
2024-05-09T08:11:03.510Z,62.13
2024-05-09T08:12:09.561Z,62.22
2024-05-09T08:13:13.158Z,61.76
2024-05-09T08:14:16.201Z,61.22
2024-05-09T08:15:18.532Z,61.06
2024-05-09T08:16:21.713Z,61.37
2024-05-09T08:17:26.759Z,61.54
2024-05-09T08:18:30.569Z,60.92
2024-05-09T08:19:35.021Z,61.37
2024-05-09T08:20:43.125Z,60.96
2024-05-09T08:21:46.148Z,60.96
2024-05-09T08:22:48.584Z,61.01
2024-05-09T08:23:52.643Z,60.94
2024-05-09T08:24:55.099Z,61.25
2024-05-09T08:25:59.893Z,60.69
2024-05-09T08:27:03.192Z,60.67
2024-05-09T08:28:06.605Z,60.69
2024-05-09T08:29:11.632Z,60.60
2024-05-09T08:30:21.782Z,60.28
2024-05-09T08:31:32.663Z,60.10
2024-05-09T08:32:35.934Z,59.97
2024-05-09T08:33:52.345Z,58.40
2024-05-09T08:34:54.958Z,59.07
2024-05-09T08:35:58.801Z,58.46
2024-05-09T08:37:10.042Z,58.46
2024-05-09T08:38:18.355Z,58.29
2024-05-09T08:39:21.990Z,57.66
2024-05-09T08:40:31.015Z,57.12
2024-05-09T08:41:42.528Z,56.83
2024-05-09T08:42:57.617Z,56.69
2024-05-09T08:44:00.163Z,57.79
2024-05-09T08:45:03.108Z,57.95
2024-05-09T08:46:09.236Z,57.32
2024-05-09T08:47:12.187Z,57.28
2024-05-09T08:48:18.612Z,57.02
2024-05-09T08:49:23.276Z,57.34
2024-05-09T08:50:32.362Z,56.51
2024-05-09T08:51:40.935Z,56.52
2024-05-09T08:52:45.881Z,55.68
2024-05-09T08:53:48.189Z,56.65
2024-05-09T08:54:52.092Z,56.80
2024-05-09T08:55:58.800Z,57.05
2024-05-09T08:57:02.210Z,56.59
2024-05-09T08:58:06.119Z,55.31
2024-05-09T08:59:13.584Z,55.77
2024-05-09T09:01:22.306Z,55.17
2024-05-09T09:02:26.084Z,53.34
2024-05-09T09:03:33.376Z,54.01
2024-05-09T09:04:39.700Z,53.80
2024-05-09T09:05:48.712Z,53.86
2024-05-09T09:06:57.271Z,54.00
2024-05-09T09:08:00.896Z,53.82
2024-05-09T09:09:04.619Z,54.98
2024-05-09T09:10:08.754Z,54.60
2024-05-09T09:11:12.328Z,54.66
2024-05-09T09:12:15.820Z,54.56
2024-05-09T09:13:18.597Z,54.42
2024-05-09T09:14:21.080Z,53.91
2024-05-09T09:15:24.857Z,53.65
2024-05-09T09:16:37.669Z,53.25
2024-05-09T09:17:41.304Z,53.98
2024-05-09T09:18:47.336Z,54.28
2024-05-09T09:19:50.033Z,54.09
2024-05-09T09:20:53.353Z,54.10
2024-05-09T09:21:58.266Z,54.16
2024-05-09T09:23:01.013Z,54.77
2024-05-09T09:24:03.437Z,54.47
2024-05-09T09:25:06.269Z,54.84
2024-05-09T09:26:10.009Z,54.81
2024-05-09T09:27:17.122Z,54.71
2024-05-09T09:28:23.700Z,54.05
2024-05-09T09:29:27.011Z,54.54
2024-05-09T09:30:36.468Z,54.46
2024-05-09T09:31:42.169Z,54.21
2024-05-09T09:32:44.668Z,54.81
2024-05-09T09:33:47.674Z,54.21
2024-05-09T09:34:50.239Z,54.28
2024-05-09T09:35:53.132Z,54.46
2024-05-09T09:36:59.201Z,54.57
2024-05-09T09:38:05.968Z,54.75
2024-05-09T09:39:10.174Z,54.38
2024-05-09T09:40:22.437Z,53.94
2024-05-09T09:41:30.835Z,54.05
2024-05-09T09:42:37.491Z,54.08
2024-05-09T09:43:40.993Z,53.36
2024-05-09T09:44:47.790Z,53.73
2024-05-09T09:46:00.215Z,54.41
2024-05-09T09:47:03.504Z,54.47
2024-05-09T09:48:12.237Z,53.66
2024-05-09T09:49:16.016Z,53.76
2024-05-09T09:50:27.327Z,53.39
2024-05-09T09:51:35.912Z,53.41
2024-05-09T09:52:39.514Z,53.33
2024-05-09T09:53:44.249Z,53.16
2024-05-09T09:54:49.153Z,52.64
2024-05-09T09:55:53.460Z,52.90
2024-05-09T09:56:57.367Z,53.05
2024-05-09T09:58:00.701Z,52.90
2024-05-09T09:59:04.881Z,53.01
2024-05-09T10:00:11.797Z,53.16
2024-05-09T10:01:17.225Z,53.40
2024-05-09T10:02:20.012Z,53.45
2024-05-09T10:03:23.248Z,53.77
2024-05-09T10:04:26.056Z,53.43
2024-05-09T10:05:29.552Z,52.89
2024-05-09T10:06:38.530Z,52.72
2024-05-09T10:07:42.582Z,51.24
2024-05-09T10:08:48.409Z,52.58
2024-05-09T10:09:56.154Z,52.76
2024-05-09T10:10:59.891Z,52.80
2024-05-09T10:12:13.801Z,51.51
2024-05-09T10:13:20.181Z,52.41
2024-05-09T10:14:24.504Z,52.23
2024-05-09T10:15:28.026Z,51.91
2024-05-09T10:16:33.900Z,51.28
2024-05-09T10:17:37.647Z,51.67
2024-05-09T10:18:43.575Z,51.25
2024-05-09T10:19:47.521Z,51.28
2024-05-09T10:20:53.098Z,51.37
2024-05-09T10:22:03.458Z,50.57
2024-05-09T10:23:06.047Z,50.71
2024-05-09T10:24:11.292Z,51.05
2024-05-09T10:25:13.884Z,51.21
2024-05-09T10:26:18.940Z,50.75
2024-05-09T10:27:29.628Z,50.43
2024-05-09T10:28:37.267Z,51.73
2024-05-09T10:29:39.825Z,52.07
2024-05-09T10:30:43.384Z,50.87
2024-05-09T10:31:48.110Z,51.11
2024-05-09T10:32:56.265Z,51.84
2024-05-09T10:34:04.204Z,51.63
2024-05-09T10:35:12.749Z,51.58
2024-05-09T10:36:21.323Z,51.16
2024-05-09T10:37:27.406Z,51.64
2024-05-09T10:38:31.208Z,51.62
2024-05-09T10:39:41.668Z,51.94
2024-05-09T10:40:47.498Z,51.42
2024-05-09T10:41:50.608Z,51.50
2024-05-09T10:42:53.255Z,51.28
2024-05-09T10:43:56.164Z,51.04
2024-05-09T10:44:59.711Z,50.89
2024-05-09T10:46:02.905Z,50.65
2024-05-09T10:47:06.536Z,50.74
2024-05-09T10:48:13.102Z,50.88
2024-05-09T10:49:16.013Z,51.42
2024-05-09T10:50:28.102Z,51.58
2024-05-09T10:51:34.704Z,51.44
2024-05-09T10:52:38.266Z,51.23
2024-05-09T10:53:46.071Z,51.11
2024-05-09T10:54:54.555Z,50.54
2024-05-09T10:56:04.723Z,51.03
2024-05-09T10:57:07.994Z,51.23
2024-05-09T10:58:22.277Z,50.07
2024-05-09T10:59:24.859Z,50.00
2024-05-09T11:00:36.141Z,50.18
2024-05-09T11:01:41.790Z,50.54
2024-05-09T11:02:44.495Z,50.55
2024-05-09T11:03:51.345Z,50.43
2024-05-09T11:04:54.081Z,49.30
2024-05-09T11:05:58.120Z,50.04
2024-05-09T11:07:08.856Z,49.78
2024-05-09T11:08:12.894Z,50.12
2024-05-09T11:09:16.167Z,49.20
2024-05-09T11:10:27.202Z,49.29
2024-05-09T11:11:34.703Z,50.00
2024-05-09T11:12:37.718Z,49.41
2024-05-09T11:13:43.869Z,48.59
2024-05-09T11:14:57.144Z,49.91
2024-05-09T11:16:00.865Z,49.63
2024-05-09T11:17:07.751Z,49.92
2024-05-09T11:18:25.477Z,48.80
2024-05-09T11:19:33.461Z,48.96
2024-05-09T11:20:39.135Z,48.94
2024-05-09T11:21:44.797Z,49.03
2024-05-09T11:22:47.649Z,49.42
2024-05-09T11:23:51.163Z,48.75
2024-05-09T11:24:54.984Z,48.53
2024-05-09T11:25:59.645Z,49.04
2024-05-09T11:27:06.005Z,49.19
2024-05-09T11:28:08.715Z,49.12
2024-05-09T11:29:15.743Z,48.51
2024-05-09T11:30:26.974Z,49.15
2024-05-09T11:31:37.220Z,49.65
2024-05-09T11:32:39.705Z,48.83
2024-05-09T11:33:47.162Z,48.51
2024-05-09T11:34:50.171Z,47.99
2024-05-09T11:35:54.084Z,48.17
2024-05-09T11:36:57.404Z,48.48
2024-05-09T11:38:00.047Z,48.50
2024-05-09T11:39:07.928Z,48.60
2024-05-09T11:40:16.846Z,48.53
2024-05-09T11:41:23.942Z,47.83
2024-05-09T11:42:26.908Z,47.51
2024-05-09T11:43:29.555Z,47.46
2024-05-09T11:44:32.517Z,47.73
2024-05-09T11:45:35.058Z,46.97
2024-05-09T11:46:38.167Z,47.68
2024-05-09T11:47:40.981Z,47.68
2024-05-09T11:48:44.426Z,48.64
2024-05-09T11:49:47.544Z,48.66
2024-05-09T11:50:55.872Z,48.58
2024-05-09T11:51:58.441Z,48.52
2024-05-09T11:53:01.158Z,48.21
2024-05-09T11:54:06.937Z,47.99
2024-05-09T11:55:12.954Z,48.25
2024-05-09T11:56:17.518Z,48.47
2024-05-09T11:57:19.932Z,47.94
2024-05-09T11:58:23.660Z,48.10
2024-05-09T11:59:26.391Z,48.39
2024-05-09T12:00:34.532Z,47.72
2024-05-09T12:01:39.788Z,48.25
2024-05-09T12:02:43.499Z,47.54
2024-05-09T12:03:51.886Z,47.88
2024-05-09T12:04:54.633Z,48.29
2024-05-09T12:05:59.412Z,48.46
2024-05-09T12:07:03.518Z,48.51
2024-05-09T12:08:07.324Z,48.16
2024-05-09T12:09:09.809Z,47.79
2024-05-09T12:10:16.946Z,47.74
2024-05-09T12:11:22.953Z,48.05
2024-05-09T12:12:26.149Z,48.77
2024-05-09T12:13:29.823Z,48.15
2024-05-09T12:14:34.391Z,48.22
2024-05-09T12:15:38.762Z,48.30
2024-05-09T12:16:42.366Z,48.16
2024-05-09T12:17:46.201Z,47.44
2024-05-09T12:18:52.022Z,47.54
2024-05-09T12:19:54.432Z,47.14
2024-05-09T12:20:57.168Z,46.79
2024-05-09T12:21:59.676Z,47.24
2024-05-09T12:23:02.791Z,47.21
2024-05-09T12:24:06.199Z,47.39
2024-05-09T12:25:08.572Z,47.26
2024-05-09T12:26:11.493Z,47.09
2024-05-09T12:27:13.819Z,47.35
2024-05-09T12:28:17.051Z,47.27
2024-05-09T12:29:19.549Z,47.08
2024-05-09T12:30:33.124Z,47.20
2024-05-09T12:31:43.379Z,47.30
2024-05-09T12:32:46.360Z,47.02
2024-05-09T12:33:49.134Z,47.10
2024-05-09T12:34:54.427Z,47.31
2024-05-09T12:36:00.893Z,46.99
2024-05-09T12:37:04.157Z,47.08
2024-05-09T12:38:07.252Z,47.03
2024-05-09T12:39:10.609Z,45.92
2024-05-09T12:40:22.463Z,46.86
2024-05-09T12:41:29.101Z,46.94
2024-05-09T12:42:33.746Z,47.07
2024-05-09T12:43:39.391Z,46.46
2024-05-09T12:44:42.142Z,46.63
2024-05-09T12:45:45.019Z,46.14
2024-05-09T12:46:47.852Z,46.56
2024-05-09T12:47:50.903Z,46.92
2024-05-09T12:48:53.612Z,46.73
2024-05-09T12:49:56.939Z,46.14
2024-05-09T12:50:59.432Z,46.20
2024-05-09T12:52:02.351Z,46.15
2024-05-09T12:53:05.825Z,46.31
2024-05-09T12:54:08.215Z,46.09
2024-05-09T12:55:11.455Z,45.69
2024-05-09T12:56:14.231Z,45.68
2024-05-09T12:57:17.101Z,46.20
2024-05-09T12:58:22.738Z,46.28
2024-05-09T12:59:25.935Z,46.34
2024-05-09T13:00:33.640Z,46.62
2024-05-09T13:01:37.745Z,46.64
2024-05-09T13:02:41.044Z,46.30
2024-05-09T13:03:43.737Z,46.20
2024-05-09T13:04:47.389Z,46.25
2024-05-09T13:05:51.648Z,46.23
2024-05-09T13:06:54.522Z,45.85
2024-05-09T13:07:57.472Z,45.79
2024-05-09T13:09:03.056Z,45.92
2024-05-09T13:10:13.820Z,46.09
2024-05-09T13:11:22.230Z,45.80
2024-05-09T13:12:27.678Z,46.26
2024-05-09T13:13:30.249Z,46.60
2024-05-09T13:14:33.299Z,46.48
2024-05-09T13:15:37.147Z,45.54
2024-05-09T13:16:39.733Z,45.20
2024-05-09T13:17:43.067Z,44.70
2024-05-09T13:18:46.124Z,44.36
2024-05-09T13:19:48.618Z,44.42
2024-05-09T13:20:51.308Z,44.49
2024-05-09T13:21:53.776Z,44.69
2024-05-09T13:22:58.367Z,44.44
2024-05-09T13:24:00.935Z,44.75
2024-05-09T13:25:03.328Z,44.50
2024-05-09T13:26:06.087Z,44.51
2024-05-09T13:27:09.952Z,43.67
2024-05-09T13:28:12.846Z,44.38
2024-05-09T13:29:15.871Z,44.78
2024-05-09T13:30:29.626Z,44.87
2024-05-09T13:31:40.932Z,45.72
2024-05-09T13:32:43.459Z,45.68
2024-05-09T13:33:46.500Z,45.22
2024-05-09T13:34:49.143Z,45.86
2024-05-09T13:35:52.840Z,46.01
2024-05-09T13:36:55.857Z,46.29
2024-05-09T13:37:58.476Z,46.77
2024-05-09T13:39:00.973Z,46.16
2024-05-09T13:40:05.395Z,46.25
2024-05-09T13:41:09.633Z,46.19
2024-05-09T13:42:12.574Z,46.63
2024-05-09T13:43:15.228Z,46.38
2024-05-09T13:44:18.495Z,46.59
2024-05-09T13:45:21.072Z,46.89
2024-05-09T13:46:23.718Z,47.12
2024-05-09T13:47:27.969Z,46.66
2024-05-09T13:48:31.107Z,47.15
2024-05-09T13:49:33.541Z,47.23
2024-05-09T13:50:37.358Z,47.66
2024-05-09T13:51:40.154Z,47.95
2024-05-09T13:52:43.211Z,47.52
2024-05-09T13:53:45.989Z,47.04
2024-05-09T13:54:48.633Z,47.20
2024-05-09T13:55:51.359Z,47.36
2024-05-09T13:56:53.802Z,47.50
2024-05-09T13:57:57.111Z,47.16